createdAt,value
2022-09-06T00:01:42.959Z,60.28
2022-09-06T00:04:15.455Z,60.60
2022-09-06T00:06:45.344Z,60.29
2022-09-06T00:09:15.028Z,60.66
2022-09-06T00:11:44.826Z,61.05
2022-09-06T00:14:17.060Z,60.93
2022-09-06T00:16:46.978Z,61.12
2022-09-06T00:19:16.668Z,61.90
2022-09-06T00:21:46.415Z,61.46
2022-09-06T00:24:16.419Z,62.06
2022-09-06T00:26:46.075Z,62.55
2022-09-06T00:29:18.335Z,62.72
2022-09-06T00:31:48.046Z,62.97
2022-09-06T00:34:17.718Z,62.92
2022-09-06T00:36:47.383Z,63.41
2022-09-06T00:39:17.167Z,63.47
2022-09-06T00:41:46.865Z,64.10
2022-09-06T00:44:19.372Z,64.42
2022-09-06T00:46:52.059Z,64.17
2022-09-06T00:49:25.742Z,63.79
2022-09-06T00:51:58.517Z,64.12
2022-09-06T00:54:28.967Z,64.32
2022-09-06T00:57:00.339Z,64.83
2022-09-06T00:59:36.248Z,64.60
2022-09-06T01:02:07.277Z,65.14
2022-09-06T01:04:37.436Z,65.01
2022-09-06T01:07:15.613Z,65.04
2022-09-06T01:09:59.261Z,65.52
2022-09-06T01:12:40.531Z,65.89
2022-09-06T01:15:25.914Z,65.52
2022-09-06T01:18:04.631Z,65.84
2022-09-06T01:20:56.067Z,65.52
2022-09-06T01:23:58.333Z,65.97
2022-09-06T01:26:52.893Z,66.06
2022-09-06T01:29:35.497Z,66.19
2022-09-06T01:32:16.788Z,66.27
2022-09-06T01:34:51.448Z,66.34
2022-09-06T01:37:22.985Z,66.63
2022-09-06T01:39:53.097Z,66.69
2022-09-06T01:42:26.688Z,66.74
2022-09-06T01:45:02.529Z,67.17
2022-09-06T01:47:40.890Z,66.97
2022-09-06T01:50:25.861Z,66.81
2022-09-06T01:53:07.181Z,67.42
2022-09-06T02:03:12.314Z,68.36
2022-09-06T02:05:47.469Z,68.83
2022-09-06T02:08:20.658Z,69.51
2022-09-06T02:10:55.599Z,69.19
2022-09-06T02:13:28.459Z,69.13
2022-09-06T02:16:03.782Z,69.99
2022-09-06T02:18:40.706Z,69.22
2022-09-06T02:21:13.286Z,69.20
2022-09-06T02:23:45.839Z,69.64
2022-09-06T02:26:21.096Z,69.72
2022-09-06T02:28:51.258Z,69.97
2022-09-06T02:31:24.788Z,70.10
2022-09-06T02:33:57.064Z,69.48
2022-09-06T02:36:27.286Z,69.91
2022-09-06T02:38:57.226Z,69.96
2022-09-06T02:41:27.655Z,69.38
2022-09-06T02:43:57.341Z,69.28
2022-09-06T02:46:27.059Z,69.80
2022-09-06T02:48:59.313Z,69.50
2022-09-06T02:51:28.913Z,69.91
2022-09-06T02:53:58.504Z,69.88
2022-09-06T02:56:28.086Z,69.54
2022-09-06T02:58:57.635Z,69.37
2022-09-06T03:01:27.208Z,70.15
2022-09-06T03:03:59.432Z,69.08
2022-09-06T03:06:29.558Z,69.64
2022-09-06T03:09:00.200Z,69.65
2022-09-06T03:11:30.022Z,69.72
2022-09-06T03:13:59.624Z,69.88
2022-09-06T03:16:29.373Z,69.93
2022-09-06T03:19:01.567Z,70.01
2022-09-06T03:21:31.202Z,70.06
2022-09-06T03:24:00.726Z,70.18
2022-09-06T03:26:30.731Z,70.24
2022-09-06T03:29:00.353Z,70.23
2022-09-06T03:31:29.966Z,70.36
2022-09-06T03:34:02.148Z,70.33
2022-09-06T03:36:31.848Z,70.31
2022-09-06T03:39:01.406Z,70.53
2022-09-06T03:41:30.943Z,70.27
2022-09-06T03:44:00.520Z,70.29
2022-09-06T03:46:30.922Z,70.69
2022-09-06T03:49:03.235Z,70.32
2022-09-06T03:51:32.807Z,70.68
2022-09-06T03:54:02.343Z,70.79
2022-09-06T03:56:31.978Z,71.17
2022-09-06T03:59:02.017Z,70.88
2022-09-06T04:01:32.046Z,70.83
2022-09-06T04:04:04.667Z,70.23
2022-09-06T04:06:34.271Z,70.69
2022-09-06T04:09:03.808Z,71.21
2022-09-06T04:11:33.370Z,71.03
2022-09-06T04:14:02.940Z,71.39
2022-09-06T04:16:32.568Z,71.39
2022-09-06T04:19:04.751Z,71.70
2022-09-06T04:21:34.626Z,71.32
2022-09-06T04:24:04.669Z,71.18
2022-09-06T04:26:34.238Z,71.24
2022-09-06T04:29:03.847Z,71.18
2022-09-06T04:31:33.455Z,71.62
2022-09-06T04:34:05.710Z,71.54
2022-09-06T04:36:35.264Z,71.40
2022-09-06T04:39:05.469Z,71.68
2022-09-06T04:41:35.098Z,72.21
2022-09-06T04:44:05.033Z,72.20
2022-09-06T04:46:34.592Z,71.87
2022-09-06T04:49:06.773Z,72.17
2022-09-06T04:51:37.414Z,71.91
2022-09-06T04:54:07.008Z,71.32
2022-09-06T04:56:36.582Z,71.18
2022-09-06T04:59:06.301Z,71.21
2022-09-06T05:01:35.886Z,71.53
2022-09-06T05:04:08.262Z,71.38
2022-09-06T05:06:39.277Z,71.23
2022-09-06T05:09:08.862Z,71.30
2022-09-06T05:11:38.774Z,71.18
2022-09-06T05:14:08.374Z,70.82
2022-09-06T05:16:38.079Z,70.43
2022-09-06T05:19:10.368Z,71.09
2022-09-06T05:21:39.930Z,70.70
2022-09-06T05:24:09.661Z,70.68
2022-09-06T05:26:39.426Z,70.67
2022-09-06T05:29:09.007Z,70.88
2022-09-06T05:31:38.899Z,70.76
2022-09-06T05:34:13.477Z,70.53
2022-09-06T05:36:43.172Z,70.50
2022-09-06T05:39:12.745Z,70.19
2022-09-06T05:41:42.390Z,70.34
2022-09-06T05:44:11.950Z,70.93
2022-09-06T05:46:45.290Z,70.03
2022-09-06T05:49:17.443Z,70.02
2022-09-06T05:51:47.008Z,70.59
2022-09-06T05:54:16.554Z,70.66
2022-09-06T05:56:46.130Z,71.43
2022-09-06T05:59:15.758Z,73.08
2022-09-06T06:01:51.114Z,73.11
2022-09-06T06:04:23.666Z,73.75
2022-09-06T06:06:53.645Z,73.83
2022-09-06T06:09:23.187Z,75.55
2022-09-06T06:11:52.762Z,76.18
2022-09-06T06:14:22.294Z,77.11
2022-09-06T06:16:52.069Z,77.70
2022-09-06T06:19:24.295Z,78.05
2022-09-06T06:21:53.868Z,78.72
2022-09-06T06:24:23.429Z,78.15
2022-09-06T06:26:53.101Z,78.72
2022-09-06T06:29:22.641Z,82.69
2022-09-06T06:31:52.250Z,84.55
2022-09-06T06:34:24.374Z,86.05
2022-09-06T06:36:53.950Z,87.67
2022-09-06T06:39:23.569Z,87.17
2022-09-06T06:41:53.451Z,87.09
2022-09-06T06:44:41.059Z,87.21
2022-09-06T06:47:11.768Z,86.85
2022-09-06T06:49:44.970Z,85.49
2022-09-06T06:52:14.661Z,85.35
2022-09-06T06:54:44.307Z,85.43
2022-09-06T06:57:13.942Z,85.70
2022-09-06T06:59:43.516Z,84.68
2022-09-06T07:02:15.859Z,84.07
2022-09-06T07:04:49.212Z,84.05
2022-09-06T07:07:36.614Z,84.31
2022-09-06T07:13:00.713Z,83.89
2022-09-06T07:15:30.498Z,85.37
2022-09-06T07:18:01.551Z,84.64
2022-09-06T07:26:18.152Z,83.95
2022-09-06T07:28:48.384Z,84.53
2022-09-06T07:34:09.488Z,83.65
2022-09-06T07:36:41.811Z,84.74
2022-09-06T07:39:12.480Z,84.47
2022-09-06T07:41:42.113Z,84.38
2022-09-06T07:44:12.808Z,84.50
2022-09-06T07:46:42.780Z,84.16
2022-09-06T07:49:12.419Z,83.75
2022-09-06T07:51:45.641Z,83.02
2022-09-06T07:54:31.766Z,83.86
2022-09-06T07:57:02.439Z,83.65
2022-09-06T07:59:32.082Z,83.88
2022-09-06T08:02:01.799Z,83.95
2022-09-06T08:04:31.547Z,82.95
2022-09-06T08:09:59.352Z,82.56
2022-09-06T08:12:30.931Z,81.92
2022-09-06T08:15:01.562Z,82.73
2022-09-06T08:17:35.226Z,83.33
2022-09-06T08:20:07.668Z,82.50
2022-09-06T08:22:39.816Z,82.89
2022-09-06T08:25:10.599Z,83.13
2022-09-06T08:27:40.167Z,82.81
2022-09-06T08:30:11.674Z,82.28
2022-09-06T08:32:42.828Z,81.89
2022-09-06T08:35:13.492Z,81.88
2022-09-06T08:37:45.657Z,82.69
2022-09-06T08:40:24.910Z,81.48
2022-09-06T08:42:54.801Z,81.51
2022-09-06T08:45:24.871Z,82.01
2022-09-06T08:47:54.576Z,80.81
2022-09-06T08:50:26.404Z,80.80
2022-09-06T08:53:16.840Z,80.71
2022-09-06T08:55:55.026Z,79.44
2022-09-06T08:58:40.688Z,78.99
2022-09-06T09:01:15.318Z,79.18
2022-09-06T09:03:49.193Z,80.25
2022-09-06T09:06:19.896Z,79.46
2022-09-06T09:09:03.518Z,80.04
2022-09-06T09:11:36.111Z,80.16
2022-09-06T09:14:08.700Z,80.37
2022-09-06T09:16:38.635Z,80.33
2022-09-06T09:19:09.483Z,80.48
2022-09-06T09:21:41.805Z,78.94
2022-09-06T09:24:16.087Z,78.92
2022-09-06T09:26:54.576Z,78.29
2022-09-06T09:29:28.690Z,79.30
2022-09-06T09:32:00.031Z,79.11
2022-09-06T09:34:34.158Z,78.92
2022-09-06T09:40:09.991Z,79.29
2022-09-06T09:42:40.862Z,79.20
2022-09-06T09:45:31.679Z,78.12
2022-09-06T09:48:20.359Z,76.69
2022-09-06T09:50:50.830Z,77.69
2022-09-06T09:53:23.457Z,76.79
2022-09-06T09:56:01.404Z,76.46
2022-09-06T09:58:35.730Z,75.51
2022-09-06T10:01:20.968Z,75.52
2022-09-06T10:09:37.306Z,75.30
2022-09-06T10:12:10.131Z,74.50
2022-09-06T10:14:44.917Z,74.56
2022-09-06T10:17:22.331Z,73.28
2022-09-06T10:19:52.994Z,72.53
2022-09-06T10:22:28.890Z,72.00
2022-09-06T10:25:27.904Z,71.69
2022-09-06T10:28:27.580Z,70.70
2022-09-06T10:31:32.804Z,69.67
2022-09-06T10:34:12.681Z,68.87
2022-09-06T10:36:50.940Z,67.74
2022-09-06T10:39:34.582Z,68.07
2022-09-06T10:42:18.935Z,68.66
2022-09-06T10:45:03.199Z,67.58
2022-09-06T10:47:40.547Z,68.08
2022-09-06T10:50:11.345Z,67.61
2022-09-06T10:52:47.438Z,66.93
2022-09-06T10:55:20.985Z,66.13
2022-09-06T11:00:50.158Z,66.53
2022-09-06T11:06:20.085Z,66.15
2022-09-06T11:09:00.040Z,64.06
2022-09-06T11:11:38.389Z,65.02
2022-09-06T11:14:12.512Z,65.33
2022-09-06T11:16:54.813Z,63.75
2022-09-06T11:19:31.212Z,64.05
2022-09-06T11:22:31.937Z,63.46
2022-09-06T11:25:26.146Z,63.75
2022-09-06T11:28:00.399Z,63.35
2022-09-06T11:30:34.493Z,63.50
2022-09-06T11:33:25.502Z,63.32
2022-09-06T11:35:56.862Z,63.62
2022-09-06T11:38:29.499Z,63.64
2022-09-06T11:41:03.965Z,63.46
2022-09-06T11:43:51.180Z,63.19
2022-09-06T11:46:51.224Z,62.49
2022-09-06T11:49:41.433Z,62.39
2022-09-06T11:52:41.309Z,63.42
2022-09-06T11:55:14.895Z,62.22
2022-09-06T11:57:45.520Z,62.25
2022-09-06T12:00:24.469Z,62.05
2022-09-06T12:06:21.898Z,62.07
2022-09-06T12:08:52.815Z,61.69
2022-09-06T12:11:37.527Z,61.65
2022-09-06T12:14:11.120Z,61.35
2022-09-06T12:17:11.523Z,60.84
2022-09-06T12:19:45.314Z,60.17
2022-09-06T12:22:46.137Z,60.16
2022-09-06T12:25:23.066Z,59.53
2022-09-06T12:27:57.025Z,59.75
2022-09-06T12:30:38.090Z,59.72
2022-09-06T12:33:13.940Z,58.70
2022-09-06T12:36:03.325Z,58.71
2022-09-06T12:38:35.493Z,59.72
2022-09-06T12:41:08.929Z,59.16
2022-09-06T12:43:41.973Z,58.88
2022-09-06T12:46:11.818Z,58.20
2022-09-06T12:48:44.485Z,58.03
2022-09-06T12:51:23.606Z,57.20
2022-09-06T12:53:56.633Z,56.93
2022-09-06T12:56:32.942Z,57.74
2022-09-06T12:59:17.233Z,57.82
2022-09-06T13:01:53.038Z,57.18
2022-09-06T13:04:30.195Z,56.52
2022-09-06T13:07:01.991Z,56.80
2022-09-06T13:09:33.076Z,56.72
2022-09-06T13:12:13.387Z,56.13
2022-09-06T13:14:43.519Z,56.60
2022-09-06T13:17:26.542Z,55.06
2022-09-06T13:19:58.191Z,55.60
2022-09-06T13:22:46.287Z,55.86
2022-09-06T13:25:20.871Z,55.18
2022-09-06T13:27:57.763Z,55.23
2022-09-06T13:30:42.769Z,54.25
2022-09-06T13:33:27.079Z,53.64
2022-09-06T13:36:09.504Z,54.16
2022-09-06T13:38:43.593Z,53.95
2022-09-06T13:41:42.052Z,53.77
2022-09-06T13:44:32.057Z,54.03
2022-09-06T13:47:05.994Z,53.44
2022-09-06T13:49:36.741Z,52.97
2022-09-06T13:52:08.205Z,53.39
2022-09-06T13:54:40.046Z,52.53
2022-09-06T13:57:10.743Z,53.25
2022-09-06T13:59:43.101Z,52.87
2022-09-06T14:02:16.039Z,52.47
2022-09-06T14:04:45.814Z,51.94
2022-09-06T14:07:16.574Z,52.85
2022-09-06T14:09:51.244Z,53.18
2022-09-06T14:12:21.001Z,52.25
2022-09-06T14:14:53.278Z,51.89
2022-09-06T14:17:23.285Z,52.07
2022-09-06T14:19:53.075Z,51.56
2022-09-06T14:22:23.821Z,52.20
2022-09-06T14:24:53.854Z,52.14
2022-09-06T14:27:24.752Z,52.21
2022-09-06T14:29:57.362Z,52.21
2022-09-06T14:32:27.306Z,51.81
2022-09-06T14:34:56.982Z,52.13
2022-09-06T14:37:26.782Z,51.68
2022-09-06T14:39:56.733Z,51.24
2022-09-06T14:42:28.436Z,51.25
2022-09-06T14:45:01.818Z,51.64
2022-09-06T14:47:31.873Z,51.59
2022-09-06T14:50:10.752Z,51.65
2022-09-06T14:52:40.622Z,51.47
2022-09-06T14:55:11.153Z,51.01
2022-09-06T14:57:46.198Z,51.64
2022-09-06T15:00:19.403Z,51.56
2022-09-06T15:02:49.324Z,51.64
2022-09-06T15:05:19.234Z,51.66
2022-09-06T15:07:48.983Z,51.69
2022-09-06T15:10:19.428Z,51.36
2022-09-06T15:12:50.123Z,51.78
2022-09-06T15:15:23.875Z,51.30
2022-09-06T15:17:55.003Z,50.89
2022-09-06T15:20:26.365Z,50.71
2022-09-06T15:23:21.802Z,51.16
2022-09-06T15:25:56.483Z,51.00
2022-09-06T15:28:27.174Z,50.46
2022-09-06T15:31:00.686Z,50.66
2022-09-06T15:33:31.787Z,50.67
2022-09-06T15:36:06.575Z,50.61
2022-09-06T15:38:40.362Z,50.86
2022-09-06T15:41:12.958Z,50.60
2022-09-06T15:43:52.076Z,51.08
2022-09-06T15:46:44.797Z,50.37
2022-09-06T15:49:18.493Z,50.48
2022-09-06T15:51:50.071Z,50.72
2022-09-06T15:54:41.879Z,51.27
2022-09-06T15:57:12.016Z,50.67
2022-09-06T15:59:43.500Z,50.82
2022-09-06T16:02:16.181Z,50.69
2022-09-06T16:04:49.403Z,51.30
2022-09-06T16:07:19.670Z,51.06
2022-09-06T16:09:49.387Z,50.60
2022-09-06T16:12:19.272Z,50.41
2022-09-06T16:14:51.043Z,50.31
2022-09-06T16:17:27.464Z,50.59
2022-09-06T16:19:59.206Z,50.85
2022-09-06T16:22:30.764Z,50.85
2022-09-06T16:25:00.435Z,50.82
2022-09-06T16:27:30.318Z,50.77
2022-09-06T16:30:00.092Z,50.75
2022-09-06T16:32:32.480Z,51.02
2022-09-06T16:35:06.776Z,51.88
2022-09-06T16:37:38.548Z,51.59
2022-09-06T16:40:10.057Z,51.54
2022-09-06T16:42:39.883Z,52.05
2022-09-06T16:45:20.044Z,51.60
2022-09-06T16:47:55.873Z,51.34
2022-09-06T16:50:27.458Z,51.84
2022-09-06T16:52:57.247Z,51.58
2022-09-06T16:55:28.186Z,51.73
2022-09-06T16:58:01.201Z,52.11
2022-09-06T17:00:31.191Z,53.05
2022-09-06T17:03:03.501Z,52.46
2022-09-06T17:05:34.553Z,52.66
2022-09-06T17:08:04.422Z,52.55
2022-09-06T17:10:42.503Z,52.73
2022-09-06T17:13:14.332Z,53.43
2022-09-06T17:15:56.684Z,52.89
2022-09-06T17:18:31.048Z,53.50
2022-09-06T17:21:05.033Z,53.57
2022-09-06T17:23:35.226Z,53.90
2022-09-06T17:26:07.035Z,53.50
2022-09-06T17:28:37.435Z,53.80
2022-09-06T17:31:09.298Z,54.19
2022-09-06T17:33:41.704Z,53.49
2022-09-06T17:36:13.749Z,53.79
2022-09-06T17:38:44.888Z,54.68
2022-09-06T17:41:22.361Z,54.56
2022-09-06T17:43:55.703Z,54.92
2022-09-06T17:46:28.852Z,55.63
2022-09-06T17:49:02.923Z,55.31
2022-09-06T17:51:35.754Z,55.93
2022-09-06T17:54:06.014Z,56.20
2022-09-06T17:56:38.102Z,56.54
2022-09-06T17:59:09.682Z,57.53
2022-09-06T18:01:41.270Z,57.39
2022-09-06T18:04:14.903Z,58.09
2022-09-06T18:06:46.847Z,59.12
2022-09-06T18:09:18.878Z,59.48
2022-09-06T18:11:50.639Z,59.97
2022-09-06T18:14:21.945Z,60.58
2022-09-06T18:16:54.582Z,60.43
2022-09-06T18:19:27.923Z,60.83
2022-09-06T18:22:01.268Z,61.58
2022-09-06T18:24:31.127Z,62.28
2022-09-06T18:27:02.850Z,62.64
2022-09-06T18:29:33.109Z,62.81
2022-09-06T18:32:03.020Z,63.83
2022-09-06T18:34:35.565Z,63.80
2022-09-06T18:37:05.861Z,64.10
2022-09-06T18:39:35.640Z,64.11
2022-09-06T18:42:11.112Z,64.38
2022-09-06T18:44:43.784Z,64.44
2022-09-06T18:47:14.879Z,64.37
2022-09-06T18:49:52.885Z,64.19
2022-09-06T18:52:24.605Z,64.02
2022-09-06T18:54:54.351Z,64.48
2022-09-06T18:57:25.082Z,64.38
2022-09-06T18:59:58.264Z,64.66
2022-09-06T19:02:28.832Z,64.85
2022-09-06T19:05:01.195Z,65.06
2022-09-06T19:07:30.870Z,65.78
2022-09-06T19:10:00.663Z,65.74
2022-09-06T19:12:30.387Z,66.18
2022-09-06T19:15:01.185Z,66.55
2022-09-06T19:17:31.205Z,66.42
2022-09-06T19:20:03.549Z,66.57
2022-09-06T19:22:33.359Z,66.87
2022-09-06T19:25:03.180Z,66.62
2022-09-06T19:27:34.594Z,66.60
2022-09-06T19:30:07.180Z,67.36
2022-09-06T19:32:37.144Z,67.60
2022-09-06T19:35:15.651Z,67.35
2022-09-06T19:37:45.421Z,68.22
2022-09-06T19:40:16.243Z,68.02
2022-09-06T19:42:47.113Z,68.44
2022-09-06T19:45:18.160Z,68.12
2022-09-06T19:47:47.843Z,68.79
2022-09-06T19:50:21.287Z,69.06
2022-09-06T19:52:50.987Z,69.00
2022-09-06T19:55:20.678Z,69.25
2022-09-06T19:57:50.354Z,69.59
2022-09-06T20:00:20.155Z,69.52
2022-09-06T20:02:49.974Z,69.57
2022-09-06T20:05:22.359Z,69.48
2022-09-06T20:07:52.319Z,69.46
2022-09-06T20:10:22.328Z,69.96
2022-09-06T20:12:54.086Z,69.55
2022-09-06T20:15:26.871Z,69.47
2022-09-06T20:17:56.645Z,70.03
2022-09-06T20:20:29.054Z,69.96
2022-09-06T20:22:58.752Z,70.38
2022-09-06T20:25:28.768Z,70.21
2022-09-06T20:27:58.709Z,70.40
2022-09-06T20:30:30.218Z,70.73
2022-09-06T20:33:00.150Z,70.55
2022-09-06T20:35:37.974Z,70.28
2022-09-06T20:38:07.662Z,70.91
2022-09-06T20:40:38.502Z,70.73
2022-09-06T20:43:08.239Z,70.71
2022-09-06T20:45:40.228Z,70.61
2022-09-06T20:48:10.993Z,71.01
2022-09-06T20:50:44.359Z,70.81
2022-09-06T20:53:19.269Z,71.14
2022-09-06T20:55:58.578Z,71.08
2022-09-06T20:58:28.657Z,71.37
2022-09-06T21:00:58.854Z,71.58
2022-09-06T21:03:29.501Z,71.63
2022-09-06T21:06:03.162Z,70.97
2022-09-06T21:08:35.038Z,71.50
2022-09-06T21:11:07.888Z,72.09
2022-09-06T21:13:38.352Z,71.72
2022-09-06T21:16:09.057Z,72.18
2022-09-06T21:18:39.306Z,71.66
2022-09-06T21:21:12.718Z,71.94
2022-09-06T21:23:42.435Z,71.83
2022-09-06T21:26:15.889Z,72.03
2022-09-06T21:28:47.492Z,72.30
2022-09-06T21:31:19.010Z,71.66
2022-09-06T21:33:52.623Z,72.16
2022-09-06T21:36:29.287Z,71.88
2022-09-06T21:39:00.247Z,71.72
2022-09-06T21:41:30.918Z,72.08
2022-09-06T21:44:02.730Z,72.29
2022-09-06T21:46:34.557Z,72.08
2022-09-06T21:49:07.176Z,72.29
2022-09-06T21:51:40.104Z,72.04
2022-09-06T21:54:09.952Z,71.92
2022-09-06T21:56:41.183Z,72.41
2022-09-06T21:59:12.106Z,72.29
2022-09-06T22:01:45.248Z,72.26
2022-09-06T22:04:15.201Z,72.11
2022-09-06T22:06:47.646Z,71.64
2022-09-06T22:09:17.345Z,71.97
2022-09-06T22:11:47.287Z,72.04
2022-09-06T22:14:17.774Z,71.49
2022-09-06T22:16:47.512Z,71.76
2022-09-06T22:19:17.227Z,71.56
2022-09-06T22:21:49.461Z,71.58
2022-09-06T22:24:19.382Z,71.62
2022-09-06T22:26:49.303Z,71.96
2022-09-06T22:29:18.982Z,71.73
2022-09-06T22:31:48.678Z,71.58
2022-09-06T22:34:18.367Z,72.04
2022-09-06T22:36:50.845Z,71.45
2022-09-06T22:39:20.510Z,72.09
2022-09-06T22:41:50.178Z,71.93
2022-09-06T22:44:20.149Z,72.22
2022-09-06T22:46:50.088Z,72.70
2022-09-06T22:49:19.857Z,72.13
2022-09-06T22:51:53.663Z,72.33
2022-09-06T22:54:23.412Z,72.27
2022-09-06T22:56:53.107Z,72.09
2022-09-06T22:59:22.988Z,72.81
2022-09-06T23:01:52.714Z,72.79
2022-09-06T23:04:22.619Z,72.97
2022-09-06T23:06:54.868Z,72.75
2022-09-06T23:09:24.548Z,72.96
2022-09-06T23:11:54.400Z,72.85
2022-09-06T23:14:24.078Z,73.04
2022-09-06T23:16:53.726Z,73.52
2022-09-06T23:19:23.393Z,73.80
2022-09-06T23:21:55.664Z,73.38
2022-09-06T23:24:25.481Z,73.71
2022-09-06T23:26:55.596Z,73.26
2022-09-06T23:29:25.373Z,73.91
2022-09-06T23:31:55.180Z,74.07
2022-09-06T23:34:24.957Z,74.29
2022-09-06T23:37:00.091Z,74.02
2022-09-06T23:39:30.384Z,73.92
2022-09-06T23:42:02.108Z,74.56
2022-09-06T23:44:31.886Z,74.98
2022-09-06T23:47:01.834Z,75.09
2022-09-06T23:49:31.618Z,75.42
2022-09-06T23:52:04.092Z,75.93
2022-09-06T23:54:33.756Z,75.54
2022-09-06T23:57:03.420Z,75.80
2022-09-06T23:59:34.838Z,76.25
